sensor_id;sensor_type;location;lat;lon;timestamp;pressure;altitude;pressure_sealevel;temperature;humidity
77247;BME280;66279;42.820;23.374;2024-02-14T00:00:44;95436.53;;;12.29;53.21
77247;BME280;66279;42.820;23.374;2024-02-14T00:03:09;95439.03;;;12.24;53.46
77247;BME280;66279;42.820;23.374;2024-02-14T00:05:35;95440.09;;;12.23;53.46
77247;BME280;66279;42.820;23.374;2024-02-14T00:08:01;95442.28;;;12.26;53.54
77247;BME280;66279;42.820;23.374;2024-02-14T00:10:27;95444.06;;;12.32;53.54
77247;BME280;66279;42.820;23.374;2024-02-14T00:12:53;95455.00;;;12.84;53.67
77247;BME280;66279;42.820;23.374;2024-02-14T00:15:18;95452.59;;;12.95;54.14
77247;BME280;66279;42.820;23.374;2024-02-14T00:17:44;95458.16;;;12.63;56.66
77247;BME280;66279;42.820;23.374;2024-02-14T00:20:09;95453.97;;;12.55;58.16
77247;BME280;66279;42.820;23.374;2024-02-14T00:22:38;95451.66;;;12.59;55.38
77247;BME280;66279;42.820;23.374;2024-02-14T00:25:03;95450.75;;;12.53;54.52
77247;BME280;66279;42.820;23.374;2024-02-14T00:27:29;95442.03;;;12.46;54.13
77247;BME280;66279;42.820;23.374;2024-02-14T00:29:55;95453.69;;;12.45;53.53
77247;BME280;66279;42.820;23.374;2024-02-14T00:32:21;95462.00;;;12.49;53.58
77247;BME280;66279;42.820;23.374;2024-02-14T00:34:47;95464.66;;;12.49;53.28
77247;BME280;66279;42.820;23.374;2024-02-14T00:37:12;95463.28;;;12.46;53.03
77247;BME280;66279;42.820;23.374;2024-02-14T00:39:38;95462.31;;;12.40;53.00
77247;BME280;66279;42.820;23.374;2024-02-14T00:42:04;95464.59;;;12.37;53.61
77247;BME280;66279;42.820;23.374;2024-02-14T00:44:29;95455.84;;;12.36;53.24
77247;BME280;66279;42.820;23.374;2024-02-14T00:46:58;95460.09;;;12.37;53.34
77247;BME280;66279;42.820;23.374;2024-02-14T00:49:27;95459.19;;;12.32;53.27
77247;BME280;66279;42.820;23.374;2024-02-14T00:51:53;95454.78;;;12.37;52.95
77247;BME280;66279;42.820;23.374;2024-02-14T00:54:18;95460.84;;;12.44;52.91
77247;BME280;66279;42.820;23.374;2024-02-14T00:56:44;95463.16;;;12.41;52.80
77247;BME280;66279;42.820;23.374;2024-02-14T00:59:10;95463.34;;;12.39;52.94
77247;BME280;66279;42.820;23.374;2024-02-14T01:01:35;95463.53;;;12.26;53.07
77247;BME280;66279;42.820;23.374;2024-02-14T01:04:01;95464.94;;;12.29;53.07
77247;BME280;66279;42.820;23.374;2024-02-14T01:06:26;95463.00;;;12.17;53.20
77247;BME280;66279;42.820;23.374;2024-02-14T01:08:51;95455.50;;;12.14;53.32
77247;BME280;66279;42.820;23.374;2024-02-14T01:11:17;95459.91;;;12.20;53.48
77247;BME280;66279;42.820;23.374;2024-02-14T01:13:42;95466.75;;;12.10;53.67
77247;BME280;66279;42.820;23.374;2024-02-14T01:16:08;95462.34;;;12.71;53.90
77247;BME280;66279;42.820;23.374;2024-02-14T01:18:33;95466.38;;;12.73;55.18
77247;BME280;66279;42.820;23.374;2024-02-14T01:20:58;95461.34;;;12.53;56.78
77247;BME280;66279;42.820;23.374;2024-02-14T01:23:26;95465.25;;;12.51;56.86
77247;BME280;66279;42.820;23.374;2024-02-14T01:25:51;95459.97;;;12.51;55.19
77247;BME280;66279;42.820;23.374;2024-02-14T01:28:19;95464.53;;;12.43;54.48
77247;BME280;66279;42.820;23.374;2024-02-14T01:30:45;95460.25;;;12.42;53.99
77247;BME280;66279;42.820;23.374;2024-02-14T01:33:10;95450.31;;;12.38;53.69
77247;BME280;66279;42.820;23.374;2024-02-14T01:35:36;95454.34;;;12.40;53.33
77247;BME280;66279;42.820;23.374;2024-02-14T01:38:01;95460.03;;;12.44;53.21
77247;BME280;66279;42.820;23.374;2024-02-14T01:40:28;95464.31;;;12.45;53.04
77247;BME280;66279;42.820;23.374;2024-02-14T01:42:53;95459.53;;;12.35;53.19
77247;BME280;66279;42.820;23.374;2024-02-14T01:45:20;95463.66;;;12.31;53.22
77247;BME280;66279;42.820;23.374;2024-02-14T01:47:47;95460.19;;;12.31;53.28
77247;BME280;66279;42.820;23.374;2024-02-14T01:50:13;95466.25;;;12.19;53.41
77247;BME280;66279;42.820;23.374;2024-02-14T01:52:39;95464.09;;;12.28;53.28
77247;BME280;66279;42.820;23.374;2024-02-14T01:55:06;95459.91;;;12.20;53.24
77247;BME280;66279;42.820;23.374;2024-02-14T01:57:33;95459.75;;;12.15;53.20
77247;BME280;66279;42.820;23.374;2024-02-14T02:00:00;95462.78;;;12.19;53.27
77247;BME280;66279;42.820;23.374;2024-02-14T02:02:33;95466.03;;;12.21;52.99
77247;BME280;66279;42.820;23.374;2024-02-14T02:04:59;95460.44;;;12.11;53.06
77247;BME280;66279;42.820;23.374;2024-02-14T02:07:24;95469.28;;;12.05;53.79
77247;BME280;66279;42.820;23.374;2024-02-14T02:09:50;95465.44;;;12.67;52.99
77247;BME280;66279;42.820;23.374;2024-02-14T02:12:16;95466.88;;;12.82;53.97
77247;BME280;66279;42.820;23.374;2024-02-14T02:14:41;95462.16;;;12.54;56.38
77247;BME280;66279;42.820;23.374;2024-02-14T02:17:07;95460.94;;;12.38;57.73
77247;BME280;66279;42.820;23.374;2024-02-14T02:19:34;95466.72;;;12.47;55.32
77247;BME280;66279;42.820;23.374;2024-02-14T02:22:01;95468.66;;;12.39;54.41
77247;BME280;66279;42.820;23.374;2024-02-14T02:24:27;95470.38;;;12.34;53.74
77247;BME280;66279;42.820;23.374;2024-02-14T02:26:52;95469.34;;;12.35;53.42
77247;BME280;66279;42.820;23.374;2024-02-14T02:29:17;95477.69;;;12.38;52.92
77247;BME280;66279;42.820;23.374;2024-02-14T02:31:45;95478.84;;;12.42;52.88
77247;BME280;66279;42.820;23.374;2024-02-14T02:34:11;95464.53;;;12.25;53.00
77247;BME280;66279;42.820;23.374;2024-02-14T02:36:36;95487.19;;;12.28;52.90
77247;BME280;66279;42.820;23.374;2024-02-14T02:39:03;95484.31;;;12.29;52.88
77247;BME280;66279;42.820;23.374;2024-02-14T02:41:30;95483.50;;;12.29;52.81
77247;BME280;66279;42.820;23.374;2024-02-14T02:43:57;95492.94;;;12.25;52.90
77247;BME280;66279;42.820;23.374;2024-02-14T02:46:22;95497.06;;;12.20;52.95
77247;BME280;66279;42.820;23.374;2024-02-14T02:48:48;95496.84;;;12.22;52.86
77247;BME280;66279;42.820;23.374;2024-02-14T02:51:16;95497.97;;;12.14;53.10
77247;BME280;66279;42.820;23.374;2024-02-14T02:53:41;95499.66;;;12.09;52.96
77247;BME280;66279;42.820;23.374;2024-02-14T02:56:08;95504.34;;;12.07;53.19
77247;BME280;66279;42.820;23.374;2024-02-14T02:58:33;95507.09;;;12.00;53.40
77247;BME280;66279;42.820;23.374;2024-02-14T03:00:59;95513.28;;;12.49;53.43
77247;BME280;66279;42.820;23.374;2024-02-14T03:03:24;95516.66;;;12.75;53.89
77247;BME280;66279;42.820;23.374;2024-02-14T03:05:52;95521.94;;;12.44;56.65
77247;BME280;66279;42.820;23.374;2024-02-14T03:08:19;95528.13;;;12.38;57.29
77247;BME280;66279;42.820;23.374;2024-02-14T03:10:44;95521.56;;;12.41;55.05
77247;BME280;66279;42.820;23.374;2024-02-14T03:13:11;95529.66;;;12.28;54.45
77247;BME280;66279;42.820;23.374;2024-02-14T03:15:39;95533.13;;;12.28;54.15
77247;BME280;66279;42.820;23.374;2024-02-14T03:18:04;95512.56;;;12.24;53.02
77247;BME280;66279;42.820;23.374;2024-02-14T03:20:34;95531.06;;;12.30;53.31
77247;BME280;66279;42.820;23.374;2024-02-14T03:23:00;95530.03;;;12.31;53.21
77247;BME280;66279;42.820;23.374;2024-02-14T03:25:25;95537.06;;;12.26;53.03
77247;BME280;66279;42.820;23.374;2024-02-14T03:27:51;95538.75;;;12.20;53.06
77247;BME280;66279;42.820;23.374;2024-02-14T03:30:19;95545.22;;;12.24;52.87
77247;BME280;66279;42.820;23.374;2024-02-14T03:32:46;95551.91;;;12.08;52.87
77247;BME280;66279;42.820;23.374;2024-02-14T03:35:12;95552.09;;;12.13;52.96
77247;BME280;66279;42.820;23.374;2024-02-14T03:37:41;95553.97;;;12.06;53.16
77247;BME280;66279;42.820;23.374;2024-02-14T03:40:08;95558.03;;;12.09;53.10
77247;BME280;66279;42.820;23.374;2024-02-14T03:42:35;95552.97;;;12.07;53.21
77247;BME280;66279;42.820;23.374;2024-02-14T03:45:00;95550.41;;;11.94;53.42
77247;BME280;66279;42.820;23.374;2024-02-14T03:47:31;95545.66;;;12.21;53.69
77247;BME280;66279;42.820;23.374;2024-02-14T03:49:58;95558.06;;;12.64;53.11
77247;BME280;66279;42.820;23.374;2024-02-14T03:52:23;95549.88;;;12.47;55.23
77247;BME280;66279;42.820;23.374;2024-02-14T03:54:49;95557.88;;;12.22;57.23
77247;BME280;66279;42.820;23.374;2024-02-14T03:57:14;95564.59;;;12.25;55.94
77247;BME280;66279;42.820;23.374;2024-02-14T03:59:40;95553.19;;;12.24;54.68
77247;BME280;66279;42.820;23.374;2024-02-14T04:02:05;95565.41;;;12.25;54.01
77247;BME280;66279;42.820;23.374;2024-02-14T04:04:36;95553.69;;;12.14;53.48
77247;BME280;66279;42.820;23.374;2024-02-14T04:07:02;95570.53;;;12.27;53.10
77247;BME280;66279;42.820;23.374;2024-02-14T04:09:27;95568.13;;;12.18;53.25
77247;BME280;66279;42.820;23.374;2024-02-14T04:11:53;95577.59;;;12.14;53.02
77247;BME280;66279;42.820;23.374;2024-02-14T04:14:18;95575.91;;;12.20;52.97
77247;BME280;66279;42.820;23.374;2024-02-14T04:16:44;95576.34;;;12.17;52.84
77247;BME280;66279;42.820;23.374;2024-02-14T04:19:09;95566.16;;;12.14;52.78
77247;BME280;66279;42.820;23.374;2024-02-14T04:21:37;95575.00;;;12.08;52.99
77247;BME280;66279;42.820;23.374;2024-02-14T04:24:03;95580.19;;;11.96;53.17
77247;BME280;66279;42.820;23.374;2024-02-14T04:26:29;95581.72;;;11.85;53.44
77247;BME280;66279;42.820;23.374;2024-02-14T04:28:54;95579.47;;;11.82;53.50
77247;BME280;66279;42.820;23.374;2024-02-14T04:31:20;95588.78;;;11.91;53.11
77247;BME280;66279;42.820;23.374;2024-02-14T04:33:45;95591.25;;;12.36;53.04
77247;BME280;66279;42.820;23.374;2024-02-14T04:36:20;95588.00;;;12.53;53.72
77247;BME280;66279;42.820;23.374;2024-02-14T04:38:49;95593.97;;;12.30;55.96
77247;BME280;66279;42.820;23.374;2024-02-14T04:41:15;95594.91;;;12.17;57.51
77247;BME280;66279;42.820;23.374;2024-02-14T04:43:41;95599.41;;;12.16;55.20
77247;BME280;66279;42.820;23.374;2024-02-14T04:46:06;95605.09;;;12.20;54.30
77247;BME280;66279;42.820;23.374;2024-02-14T04:48:36;95603.69;;;12.17;53.70
77247;BME280;66279;42.820;23.374;2024-02-14T04:51:05;95608.25;;;12.10;53.35
77247;BME280;66279;42.820;23.374;2024-02-14T04:53:31;95611.47;;;12.12;52.94
77247;BME280;66279;42.820;23.374;2024-02-14T04:55:56;95609.50;;;12.08;52.78
77247;BME280;66279;42.820;23.374;2024-02-14T04:58:22;95601.59;;;12.01;53.59
77247;BME280;66279;42.820;23.374;2024-02-14T05:00:48;95625.41;;;12.51;53.78
77247;BME280;66279;42.820;23.374;2024-02-14T05:03:14;95632.00;;;12.24;55.98
77247;BME280;66279;42.820;23.374;2024-02-14T05:05:39;95630.88;;;12.13;57.09
77247;BME280;66279;42.820;23.374;2024-02-14T05:08:05;95626.22;;;12.08;56.46
77247;BME280;66279;42.820;23.374;2024-02-14T05:10:31;95645.53;;;12.15;55.15
77247;BME280;66279;42.820;23.374;2024-02-14T05:12:57;95638.94;;;12.00;54.73
77247;BME280;66279;42.820;23.374;2024-02-14T05:15:23;95644.50;;;11.98;54.02
77247;BME280;66279;42.820;23.374;2024-02-14T05:17:49;95640.72;;;12.06;53.42
77247;BME280;66279;42.820;23.374;2024-02-14T05:20:15;95651.59;;;12.04;53.38
77247;BME280;66279;42.820;23.374;2024-02-14T05:22:41;95647.09;;;12.05;53.37
77247;BME280;66279;42.820;23.374;2024-02-14T05:25:07;95645.59;;;12.09;53.07
77247;BME280;66279;42.820;23.374;2024-02-14T05:27:36;95658.72;;;12.04;53.15
77247;BME280;66279;42.820;23.374;2024-02-14T05:30:05;95647.84;;;11.80;53.23
77247;BME280;66279;42.820;23.374;2024-02-14T05:32:34;95660.06;;;11.88;53.60
77247;BME280;66279;42.820;23.374;2024-02-14T05:34:59;95662.13;;;11.86;53.24
77247;BME280;66279;42.820;23.374;2024-02-14T05:37:25;95671.13;;;11.78;53.63
77247;BME280;66279;42.820;23.374;2024-02-14T05:39:54;95666.28;;;11.68;53.77
77247;BME280;66279;42.820;23.374;2024-02-14T05:42:20;95675.66;;;11.71;53.54
77247;BME280;66279;42.820;23.374;2024-02-14T05:44:46;95674.84;;;12.27;53.92
77247;BME280;66279;42.820;23.374;2024-02-14T05:47:12;95686.63;;;12.38;54.76
77247;BME280;66279;42.820;23.374;2024-02-14T05:49:40;95691.91;;;12.13;56.61
77247;BME280;66279;42.820;23.374;2024-02-14T05:52:06;95686.88;;;12.05;56.69
77247;BME280;66279;42.820;23.374;2024-02-14T05:54:32;95693.59;;;12.07;55.09
77247;BME280;66279;42.820;23.374;2024-02-14T05:56:57;95698.09;;;12.07;53.74
77247;BME280;66279;42.820;23.374;2024-02-14T05:59:23;95702.25;;;11.96;53.90
77247;BME280;66279;42.820;23.374;2024-02-14T06:01:49;95703.00;;;12.03;53.68
77247;BME280;66279;42.820;23.374;2024-02-14T06:04:14;95703.63;;;12.05;53.38
77247;BME280;66279;42.820;23.374;2024-02-14T06:06:39;95710.41;;;11.94;53.45
77247;BME280;66279;42.820;23.374;2024-02-14T06:09:05;95704.97;;;11.89;53.37
77247;BME280;66279;42.820;23.374;2024-02-14T06:11:38;95713.25;;;12.00;53.12
77247;BME280;66279;42.820;23.374;2024-02-14T06:14:05;95717.00;;;11.85;53.16
77247;BME280;66279;42.820;23.374;2024-02-14T06:16:32;95721.09;;;11.81;53.30
77247;BME280;66279;42.820;23.374;2024-02-14T06:18:57;95725.34;;;11.82;53.19
77247;BME280;66279;42.820;23.374;2024-02-14T06:21:23;95725.78;;;11.79;53.62
77247;BME280;66279;42.820;23.374;2024-02-14T06:23:48;95726.91;;;12.28;53.90
77247;BME280;66279;42.820;23.374;2024-02-14T06:26:13;95730.00;;;12.25;55.05
77247;BME280;66279;42.820;23.374;2024-02-14T06:28:39;95729.78;;;12.02;57.02
77247;BME280;66279;42.820;23.374;2024-02-14T06:31:05;95735.34;;;11.93;56.25
77247;BME280;66279;42.820;23.374;2024-02-14T06:33:30;95731.00;;;11.99;55.20
77247;BME280;66279;42.820;23.374;2024-02-14T06:35:55;95733.28;;;11.95;54.68
77247;BME280;66279;42.820;23.374;2024-02-14T06:38:21;95736.09;;;12.01;53.69
77247;BME280;66279;42.820;23.374;2024-02-14T06:40:46;95736.94;;;12.01;53.43
77247;BME280;66279;42.820;23.374;2024-02-14T06:43:12;95736.69;;;12.03;53.15
77247;BME280;66279;42.820;23.374;2024-02-14T06:45:38;95740.88;;;11.85;53.51
77247;BME280;66279;42.820;23.374;2024-02-14T06:48:04;95741.50;;;11.81;53.31
77247;BME280;66279;42.820;23.374;2024-02-14T06:50:29;95741.31;;;11.75;53.66
77247;BME280;66279;42.820;23.374;2024-02-14T06:52:54;95746.38;;;11.84;53.33
77247;BME280;66279;42.820;23.374;2024-02-14T06:55:25;95748.69;;;11.73;53.47
77247;BME280;66279;42.820;23.374;2024-02-14T06:57:50;95748.75;;;11.67;53.69
77247;BME280;66279;42.820;23.374;2024-02-14T07:00:15;95751.25;;;11.93;53.66
77247;BME280;66279;42.820;23.374;2024-02-14T07:02:41;95757.16;;;12.27;53.71
77247;BME280;66279;42.820;23.374;2024-02-14T07:05:08;95765.47;;;12.06;56.32
77247;BME280;66279;42.820;23.374;2024-02-14T07:07:37;95759.44;;;11.85;57.99
77247;BME280;66279;42.820;23.374;2024-02-14T07:10:03;95771.28;;;11.89;56.17
77247;BME280;66279;42.820;23.374;2024-02-14T07:12:31;95767.41;;;11.85;55.16
77247;BME280;66279;42.820;23.374;2024-02-14T07:14:56;95780.25;;;11.82;54.43
77247;BME280;66279;42.820;23.374;2024-02-14T07:17:22;95776.38;;;11.91;53.91
77247;BME280;66279;42.820;23.374;2024-02-14T07:19:47;95781.06;;;11.82;53.81
77247;BME280;66279;42.820;23.374;2024-02-14T07:22:15;95782.09;;;11.88;53.63
77247;BME280;66279;42.820;23.374;2024-02-14T07:24:41;95778.44;;;11.89;53.33
77247;BME280;66279;42.820;23.374;2024-02-14T07:27:08;95778.63;;;11.87;53.14
77247;BME280;66279;42.820;23.374;2024-02-14T07:29:33;95784.34;;;11.84;53.44
77247;BME280;66279;42.820;23.374;2024-02-14T07:32:01;95786.06;;;11.65;53.50
77247;BME280;66279;42.820;23.374;2024-02-14T07:34:27;95798.09;;;11.68;53.63
77247;BME280;66279;42.820;23.374;2024-02-14T07:36:52;95804.25;;;11.62;53.65
77247;BME280;66279;42.820;23.374;2024-02-14T07:39:18;95802.19;;;11.64;53.90
77247;BME280;66279;42.820;23.374;2024-02-14T07:41:44;95797.75;;;12.03;53.94
77247;BME280;66279;42.820;23.374;2024-02-14T07:44:09;95799.72;;;12.14;55.11
77247;BME280;66279;42.820;23.374;2024-02-14T07:46:35;95799.00;;;11.93;56.91
77247;BME280;66279;42.820;23.374;2024-02-14T07:49:00;95794.19;;;11.77;57.90
77247;BME280;66279;42.820;23.374;2024-02-14T07:51:25;95804.34;;;11.87;55.41
77247;BME280;66279;42.820;23.374;2024-02-14T07:53:53;95800.91;;;11.86;54.82
77247;BME280;66279;42.820;23.374;2024-02-14T07:56:18;95803.94;;;11.90;54.11
77247;BME280;66279;42.820;23.374;2024-02-14T07:58:43;95810.28;;;11.89;53.68
77247;BME280;66279;42.820;23.374;2024-02-14T08:01:09;95802.91;;;11.91;53.29
77247;BME280;66279;42.820;23.374;2024-02-14T08:03:35;95811.72;;;11.85;53.30
77247;BME280;66279;42.820;23.374;2024-02-14T08:06:00;95811.31;;;11.74;53.32
77247;BME280;66279;42.820;23.374;2024-02-14T08:08:26;95812.34;;;11.73;53.61
77247;BME280;66279;42.820;23.374;2024-02-14T08:10:52;95817.84;;;11.72;53.19
77247;BME280;66279;42.820;23.374;2024-02-14T08:13:18;95815.84;;;11.67;53.59
77247;BME280;66279;42.820;23.374;2024-02-14T08:15:43;95818.69;;;11.66;53.98
77247;BME280;66279;42.820;23.374;2024-02-14T08:18:09;95827.94;;;12.08;54.07
77247;BME280;66279;42.820;23.374;2024-02-14T08:20:34;95836.34;;;11.98;55.87
77247;BME280;66279;42.820;23.374;2024-02-14T08:22:59;95828.00;;;11.88;56.91
77247;BME280;66279;42.820;23.374;2024-02-14T08:25:25;95826.78;;;11.84;55.96
77247;BME280;66279;42.820;23.374;2024-02-14T08:27:52;95822.31;;;11.85;54.75
77247;BME280;66279;42.820;23.374;2024-02-14T08:30:17;95817.41;;;11.88;54.14
77247;BME280;66279;42.820;23.374;2024-02-14T08:32:44;95828.66;;;11.77;53.76
77247;BME280;66279;42.820;23.374;2024-02-14T08:35:10;95832.97;;;11.71;53.65
77247;BME280;66279;42.820;23.374;2024-02-14T08:37:36;95834.44;;;11.61;53.52
77247;BME280;66279;42.820;23.374;2024-02-14T08:40:03;95842.81;;;11.58;53.77
77247;BME280;66279;42.820;23.374;2024-02-14T08:42:32;95843.22;;;11.61;53.63
77247;BME280;66279;42.820;23.374;2024-02-14T08:44:57;95833.22;;;11.57;53.41
77247;BME280;66279;42.820;23.374;2024-02-14T08:47:22;95845.25;;;11.59;53.37
77247;BME280;66279;42.820;23.374;2024-02-14T08:49:48;95841.16;;;11.57;53.19
77247;BME280;66279;42.820;23.374;2024-02-14T08:52:13;95847.00;;;11.85;53.32
77247;BME280;66279;42.820;23.374;2024-02-14T08:54:39;95843.28;;;12.00;54.08
77247;BME280;66279;42.820;23.374;2024-02-14T08:57:04;95846.00;;;11.86;56.16
77247;BME280;66279;42.820;23.374;2024-02-14T08:59:30;95846.66;;;11.68;57.88
77247;BME280;66279;42.820;23.374;2024-02-14T09:01:55;95853.53;;;11.83;55.68
77247;BME280;66279;42.820;23.374;2024-02-14T09:04:21;95854.16;;;11.85;54.47
77247;BME280;66279;42.820;23.374;2024-02-14T09:06:46;95847.84;;;11.72;53.82
77247;BME280;66279;42.820;23.374;2024-02-14T09:09:12;95854.38;;;11.77;53.30
77247;BME280;66279;42.820;23.374;2024-02-14T09:11:39;95857.44;;;11.73;53.20
77247;BME280;66279;42.820;23.374;2024-02-14T09:14:06;95858.06;;;11.69;53.43
77247;BME280;66279;42.820;23.374;2024-02-14T09:16:34;95860.72;;;11.69;52.99
77247;BME280;66279;42.820;23.374;2024-02-14T09:19:00;95847.16;;;11.97;54.20
77247;BME280;66279;42.820;23.374;2024-02-14T09:21:26;95852.31;;;11.92;55.78
77247;BME280;66279;42.820;23.374;2024-02-14T09:23:53;95862.13;;;11.71;57.53
77247;BME280;66279;42.820;23.374;2024-02-14T09:26:18;95871.31;;;11.75;56.72
77247;BME280;66279;42.820;23.374;2024-02-14T09:28:44;95872.72;;;11.78;55.17
77247;BME280;66279;42.820;23.374;2024-02-14T09:31:09;95868.88;;;11.74;54.60
77247;BME280;66279;42.820;23.374;2024-02-14T09:33:37;95876.28;;;11.52;54.34
77247;BME280;66279;42.820;23.374;2024-02-14T09:36:03;95881.75;;;11.57;53.73
77247;BME280;66279;42.820;23.374;2024-02-14T09:38:29;95875.88;;;11.55;54.05
77247;BME280;66279;42.820;23.374;2024-02-14T09:40:59;95875.44;;;11.65;53.76
77247;BME280;66279;42.820;23.374;2024-02-14T09:43:38;95874.22;;;11.61;53.32
77247;BME280;66279;42.820;23.374;2024-02-14T09:46:06;95869.13;;;11.52;53.64
77247;BME280;66279;42.820;23.374;2024-02-14T09:48:32;95870.38;;;11.43;53.69
77247;BME280;66279;42.820;23.374;2024-02-14T09:50:59;95872.00;;;11.44;53.41
77247;BME280;66279;42.820;23.374;2024-02-14T09:53:25;95868.34;;;11.39;53.95
77247;BME280;66279;42.820;23.374;2024-02-14T09:55:52;95863.94;;;11.84;53.73
77247;BME280;66279;42.820;23.374;2024-02-14T09:58:19;95866.00;;;11.89;55.02
77247;BME280;66279;42.820;23.374;2024-02-14T10:00:45;95872.13;;;11.76;57.10
77247;BME280;66279;42.820;23.374;2024-02-14T10:03:10;95874.19;;;11.67;57.48
77247;BME280;66279;42.820;23.374;2024-02-14T10:05:36;95873.38;;;11.67;55.38
77247;BME280;66279;42.820;23.374;2024-02-14T10:08:02;95872.97;;;11.70;54.56
77247;BME280;66279;42.820;23.374;2024-02-14T10:10:28;95866.84;;;11.69;53.88
77247;BME280;66279;42.820;23.374;2024-02-14T10:12:56;95872.16;;;11.63;53.78
77247;BME280;66279;42.820;23.374;2024-02-14T10:15:23;95865.69;;;11.52;53.58
77247;BME280;66279;42.820;23.374;2024-02-14T10:17:48;95869.31;;;11.64;53.47
77247;BME280;66279;42.820;23.374;2024-02-14T10:20:17;95874.41;;;11.59;53.29
77247;BME280;66279;42.820;23.374;2024-02-14T10:22:43;95872.19;;;11.56;53.35
77247;BME280;66279;42.820;23.374;2024-02-14T10:25:10;95868.94;;;11.47;53.54
77247;BME280;66279;42.820;23.374;2024-02-14T10:27:37;95866.50;;;11.46;53.49
77247;BME280;66279;42.820;23.374;2024-02-14T10:30:08;95871.75;;;11.66;53.60
77247;BME280;66279;42.820;23.374;2024-02-14T10:32:37;95862.66;;;12.00;53.35
77247;BME280;66279;42.820;23.374;2024-02-14T10:35:08;95861.91;;;11.80;55.97
77247;BME280;66279;42.820;23.374;2024-02-14T10:37:37;95861.94;;;11.66;57.14
77247;BME280;66279;42.820;23.374;2024-02-14T10:40:04;95868.25;;;11.72;55.96
77247;BME280;66279;42.820;23.374;2024-02-14T10:42:30;95866.03;;;11.69;54.84
77247;BME280;66279;42.820;23.374;2024-02-14T10:44:56;95856.06;;;11.64;54.09
77247;BME280;66279;42.820;23.374;2024-02-14T10:47:25;95857.66;;;11.65;53.75
77247;BME280;66279;42.820;23.374;2024-02-14T10:49:51;95842.81;;;11.51;53.17
77247;BME280;66279;42.820;23.374;2024-02-14T10:52:18;95862.22;;;11.51;53.38
77247;BME280;66279;42.820;23.374;2024-02-14T10:54:53;95863.03;;;11.52;53.55
77247;BME280;66279;42.820;23.374;2024-02-14T10:57:24;95860.25;;;11.92;53.98
77247;BME280;66279;42.820;23.374;2024-02-14T10:59:50;95869.66;;;11.88;55.79
77247;BME280;66279;42.820;23.374;2024-02-14T11:02:17;95871.31;;;11.69;57.24
77247;BME280;66279;42.820;23.374;2024-02-14T11:04:43;95875.84;;;11.62;57.24
77247;BME280;66279;42.820;23.374;2024-02-14T11:07:09;95875.22;;;11.66;55.54
77247;BME280;66279;42.820;23.374;2024-02-14T11:09:40;95873.16;;;11.68;54.64
77247;BME280;66279;42.820;23.374;2024-02-14T11:12:10;95880.31;;;11.68;53.84
77247;BME280;66279;42.820;23.374;2024-02-14T11:14:36;95872.13;;;11.69;53.30
77247;BME280;66279;42.820;23.374;2024-02-14T11:17:09;95859.34;;;11.53;53.20
77247;BME280;66279;42.820;23.374;2024-02-14T11:19:35;95880.34;;;11.61;52.85
77247;BME280;66279;42.820;23.374;2024-02-14T11:22:16;95871.38;;;11.56;53.04
77247;BME280;66279;42.820;23.374;2024-02-14T11:24:45;95864.66;;;11.46;53.24
77247;BME280;66279;42.820;23.374;2024-02-14T11:27:11;95869.34;;;11.44;52.92
77247;BME280;66279;42.820;23.374;2024-02-14T11:29:39;95869.50;;;11.63;53.48
77247;BME280;66279;42.820;23.374;2024-02-14T11:32:06;95865.16;;;11.95;54.23
77247;BME280;66279;42.820;23.374;2024-02-14T11:34:33;95869.91;;;11.73;56.38
77247;BME280;66279;42.820;23.374;2024-02-14T11:36:59;95874.22;;;11.61;57.53
77247;BME280;66279;42.820;23.374;2024-02-14T11:39:25;95872.00;;;11.44;54.02
77247;BME280;66279;42.820;23.374;2024-02-14T11:41:50;95869.19;;;11.26;52.51
77247;BME280;66279;42.820;23.374;2024-02-14T11:44:16;95850.66;;;11.13;52.20
77247;BME280;66279;42.820;23.374;2024-02-14T11:46:41;95869.81;;;11.21;51.96
77247;BME280;66279;42.820;23.374;2024-02-14T11:49:07;95866.75;;;11.04;52.04
77247;BME280;66279;42.820;23.374;2024-02-14T11:51:34;95872.06;;;10.98;51.71
77247;BME280;66279;42.820;23.374;2024-02-14T11:54:05;95869.63;;;11.10;52.30
77247;BME280;66279;42.820;23.374;2024-02-14T11:56:32;95868.69;;;11.62;52.88
77247;BME280;66279;42.820;23.374;2024-02-14T11:59:01;95869.94;;;11.60;53.88
77247;BME280;66279;42.820;23.374;2024-02-14T12:01:31;95866.28;;;11.47;55.97
77247;BME280;66279;42.820;23.374;2024-02-14T12:04:00;95871.41;;;11.42;54.91
77247;BME280;66279;42.820;23.374;2024-02-14T12:06:30;95868.59;;;11.24;53.96
77247;BME280;66279;42.820;23.374;2024-02-14T12:08:57;95864.50;;;11.28;53.09
77247;BME280;66279;42.820;23.374;2024-02-14T12:11:27;95869.59;;;11.23;52.48
77247;BME280;66279;42.820;23.374;2024-02-14T12:13:53;95866.09;;;11.36;52.04
77247;BME280;66279;42.820;23.374;2024-02-14T12:16:21;95868.56;;;11.37;51.88
77247;BME280;66279;42.820;23.374;2024-02-14T12:18:47;95870.84;;;11.14;52.71
77247;BME280;66279;42.820;23.374;2024-02-14T12:21:13;95866.06;;;11.56;53.39
77247;BME280;66279;42.820;23.374;2024-02-14T12:23:39;95870.31;;;11.70;53.93
77247;BME280;66279;42.820;23.374;2024-02-14T12:26:04;95857.66;;;11.65;56.04
77247;BME280;66279;42.820;23.374;2024-02-14T12:28:31;95861.72;;;11.74;55.45
77247;BME280;66279;42.820;23.374;2024-02-14T12:30:57;95858.91;;;11.63;54.73
77247;BME280;66279;42.820;23.374;2024-02-14T12:33:27;95862.38;;;11.57;54.43
77247;BME280;66279;42.820;23.374;2024-02-14T12:35:56;95852.25;;;11.34;54.36
77247;BME280;66279;42.820;23.374;2024-02-14T12:38:23;95855.31;;;11.31;54.13
77247;BME280;66279;42.820;23.374;2024-02-14T12:40:49;95857.16;;;11.30;54.60
77247;BME280;66279;42.820;23.374;2024-02-14T12:43:15;95857.78;;;11.19;54.51
77247;BME280;66279;42.820;23.374;2024-02-14T12:45:43;95860.91;;;11.74;55.22